Time;durP1;ratioP1;P1;durP2;ratioP2;P2;SDS_P1;SDS_P2;PMS_P1;PMS_P2;Temp;Humidity;BMP_temperature;BMP_pressure;BME280_temperature;BME280_humidity;BME280_pressure;Samples;Min_cycle;Max_cycle;Signal;HPM_P1;HPM_P2
2022/08/01 00:01:41;;;;;;;20.10;11.10;;;;;;;21.04;79.41;99857.81;125124;1099;104220;-79
2022/08/01 00:04:10;;;;;;;18.63;11.60;;;;;;;20.98;79.48;99861.45;125086;1099;102868;-80
2022/08/01 00:06:39;;;;;;;18.53;10.87;;;;;;;20.97;79.54;99875.69;125011;1099;104660;-81
2022/08/01 00:09:07;;;;;;;19.63;10.70;;;;;;;20.98;79.03;99885.45;125056;1102;104207;-79
2022/08/01 00:11:36;;;;;;;18.37;11.07;;;;;;;20.99;78.74;99881.89;125126;1102;103337;-80
2022/08/01 00:14:05;;;;;;;18.33;10.67;;;;;;;21.00;79.15;99892.54;125037;1102;104181;-79
2022/08/01 00:16:34;;;;;;;18.70;11.67;;;;;;;21.01;79.97;99896.08;125070;1102;102456;-80
2022/08/01 00:19:03;;;;;;;17.83;11.60;;;;;;;21.01;79.53;99896.95;124976;1099;104447;-79
2022/08/01 00:21:31;;;;;;;18.17;11.20;;;;;;;21.03;79.81;99891.58;125102;1099;104354;-80
2022/08/01 00:24:00;;;;;;;16.83;11.03;;;;;;;21.03;79.44;99886.25;125080;1099;104320;-80
2022/08/01 00:26:29;;;;;;;18.73;10.47;;;;;;;21.03;79.91;99878.25;125173;1099;102377;-80
2022/08/01 00:28:58;;;;;;;19.97;11.13;;;;;;;21.05;80.55;99884.45;125137;1102;102225;-80
2022/08/01 00:31:27;;;;;;;16.80;11.03;;;;;;;21.05;80.51;99879.13;125091;1102;104137;-80
2022/08/01 00:33:56;;;;;;;17.75;11.20;;;;;;;21.03;79.79;99872.91;125150;1102;104160;-80
2022/08/01 00:36:25;;;;;;;18.93;10.73;;;;;;;20.98;80.84;99874.80;125130;1099;104213;-80
2022/08/01 00:38:54;;;;;;;17.87;11.33;;;;;;;20.98;80.78;99880.99;125069;1099;104174;-79
2022/08/01 00:41:23;;;;;;;18.03;11.33;;;;;;;21.00;80.24;99872.97;125149;1099;104181;-79
2022/08/01 00:43:52;;;;;;;17.37;11.30;;;;;;;21.00;79.69;99871.20;125085;1099;104336;-79
2022/08/01 00:46:21;;;;;;;18.03;11.70;;;;;;;20.99;80.19;99872.09;125148;1101;102038;-80
2022/08/01 00:48:50;;;;;;;20.77;12.03;;;;;;;20.96;81.12;99874.81;125081;1099;104204;-79
2022/08/01 00:51:19;;;;;;;18.70;11.17;;;;;;;20.96;80.46;99873.95;125110;1102;104194;-79
2022/08/01 00:53:47;;;;;;;18.77;11.23;;;;;;;20.97;80.45;99873.92;125076;1099;104256;-80
2022/08/01 00:56:16;;;;;;;17.67;11.50;;;;;;;20.99;80.58;99868.56;125039;1102;104303;-79
2022/08/01 00:58:45;;;;;;;17.15;11.55;;;;;;;20.99;81.04;99860.56;125123;1099;102785;-80
2022/08/01 01:01:14;;;;;;;18.03;11.13;;;;;;;21.01;81.22;99859.61;125078;1099;104172;-80
2022/08/01 01:03:43;;;;;;;19.90;11.60;;;;;;;21.03;81.39;99850.70;125058;1099;104239;-80
2022/08/01 01:06:24;;;;;;;18.27;12.33;;;;;;;21.04;81.43;99856.02;125050;1099;104363;-80
2022/08/01 01:09:07;;;;;;;17.13;10.97;;;;;;;21.02;80.53;99855.17;125105;1100;104237;-80
2022/08/01 01:11:44;;;;;;;18.20;11.67;;;;;;;20.98;80.90;99853.45;125027;1099;104079;-80
2022/08/01 01:14:23;;;;;;;17.00;11.03;;;;;;;20.99;80.90;99860.56;125034;1099;104075;-80
2022/08/01 01:16:54;;;;;;;17.80;11.60;;;;;;;21.02;81.65;99863.17;125080;1099;104166;-79
2022/08/01 01:19:29;;;;;;;18.00;11.47;;;;;;;21.02;80.98;99852.50;125119;1102;104236;-79
2022/08/01 01:22:32;;;;;;;20.67;12.40;;;;;;;20.99;81.66;99841.89;124991;1102;104300;-79
2022/08/01 01:25:18;;;;;;;19.30;11.70;;;;;;;20.93;81.74;99847.33;125095;1099;102292;-79
2022/08/01 01:27:58;;;;;;;21.37;12.03;;;;;;;20.94;80.94;99838.41;125036;1102;104207;-79
2022/08/01 01:30:29;;;;;;;16.80;10.83;;;;;;;20.91;81.20;99836.69;125058;1099;104217;-79
2022/08/01 01:33:01;;;;;;;17.10;10.37;;;;;;;20.85;81.50;99836.80;125030;1102;102807;-79
2022/08/01 01:35:36;;;;;;;18.23;10.47;;;;;;;20.81;81.85;99835.94;125038;1099;104258;-79
2022/08/01 01:38:09;;;;;;;17.93;10.67;;;;;;;20.82;82.10;99834.18;125122;1099;102165;-78
2022/08/01 01:40:38;;;;;;;16.37;10.18;;;;;;;20.81;82.08;99835.94;125093;1099;104165;-79
2022/08/01 01:43:11;;;;;;;16.63;10.03;;;;;;;20.82;81.04;99831.52;125024;1099;104173;-79
2022/08/01 01:45:42;;;;;;;17.48;9.93;;;;;;;20.78;81.77;99825.33;125039;1099;103102;-79
2022/08/01 01:48:13;;;;;;;15.43;9.53;;;;;;;20.75;81.92;99821.84;125074;1099;103053;-79
2022/08/01 01:50:46;;;;;;;18.10;10.40;;;;;;;20.72;82.05;99819.23;125060;1099;104053;-80
2022/08/01 01:53:17;;;;;;;16.60;10.73;;;;;;;20.70;81.47;99816.59;125022;1102;102181;-79
2022/08/01 01:55:50;;;;;;;15.17;9.87;;;;;;;20.70;81.56;99823.72;125067;1099;104172;-79
2022/08/01 01:58:23;;;;;;;16.95;10.15;;;;;;;20.70;82.06;99813.92;125031;1102;104293;-79
2022/08/01 02:00:54;;;;;;;15.40;10.10;;;;;;;20.69;82.17;99813.95;124989;1102;104669;-79
2022/08/01 02:03:24;;;;;;;13.80;9.30;;;;;;;20.62;81.92;99810.48;125070;1099;104223;-79
2022/08/01 02:05:55;;;;;;;15.63;10.00;;;;;;;20.54;82.44;99809.73;125033;1099;104211;-78
2022/08/01 02:08:25;;;;;;;15.23;9.40;;;;;;;20.46;82.97;99801.87;125034;1098;104137;-79
2022/08/01 02:14:01;;;;;;;16.23;9.50;;;;;;;20.33;83.57;99801.16;124815;1106;102374;-79
2022/08/01 02:16:35;;;;;;;13.50;8.80;;;;;;;20.26;83.52;99787.06;124808;1102;104603;-79
2022/08/01 02:19:08;;;;;;;14.90;8.67;;;;;;;20.19;83.77;99788.05;124798;1102;104219;-79
2022/08/01 02:21:44;;;;;;;15.57;8.70;;;;;;;20.11;84.01;99787.28;124878;1105;104255;-79
2022/08/01 02:24:19;;;;;;;13.17;8.17;;;;;;;20.02;82.96;99785.63;124800;1102;104245;-79
2022/08/01 02:26:52;;;;;;;15.23;8.60;;;;;;;19.96;83.23;99795.50;124811;1102;104365;-79
2022/08/01 02:29:24;;;;;;;13.05;8.58;;;;;;;19.87;84.04;99791.20;124842;1102;104246;-79
2022/08/01 02:31:55;;;;;;;12.63;8.20;;;;;;;19.82;84.14;99798.34;124837;1105;112003;-79
2022/08/01 02:34:31;;;;;;;13.83;8.47;;;;;;;19.79;84.44;99795.72;124894;1102;104331;-79
2022/08/01 02:37:03;;;;;;;12.77;8.33;;;;;;;19.77;84.14;99808.18;124850;1102;104332;-79
2022/08/01 02:39:35;;;;;;;12.47;8.07;;;;;;;19.74;84.50;99801.97;124862;1102;104165;-79
2022/08/01 02:42:08;;;;;;;12.67;7.87;;;;;;;19.73;84.01;99810.84;124867;1102;104464;-80
2022/08/01 02:44:42;;;;;;;13.80;7.97;;;;;;;19.70;84.87;99810.89;124895;1099;104329;-79
2022/08/01 02:47:11;;;;;;;13.43;7.87;;;;;;;19.70;84.43;99810.89;125066;1101;102402;-79
2022/08/01 02:49:45;;;;;;;13.80;8.20;;;;;;;19.72;83.88;99821.52;125052;1099;104165;-79
2022/08/01 02:52:23;;;;;;;13.90;7.90;;;;;;;19.70;84.66;99813.55;125036;1099;105332;-79
2022/08/01 02:54:55;;;;;;;13.60;8.03;;;;;;;19.71;84.22;99820.64;125088;1099;104172;-79
2022/08/01 02:57:25;;;;;;;14.43;8.33;;;;;;;19.72;84.13;99817.06;125002;1099;104213;-79
2022/08/01 02:59:57;;;;;;;15.43;8.17;;;;;;;19.74;84.68;99815.28;125059;1099;104198;-79
2022/08/01 03:02:26;;;;;;;13.93;8.60;;;;;;;19.78;84.89;99813.48;125061;1099;102281;-79
2022/08/01 03:04:58;;;;;;;13.77;8.57;;;;;;;19.78;84.44;99816.14;125071;1099;104168;-79
2022/08/01 03:07:29;;;;;;;13.83;8.23;;;;;;;19.80;84.56;99817.00;125074;1099;104166;-79
2022/08/01 03:09:59;;;;;;;13.57;8.47;;;;;;;19.80;84.01;99813.47;125106;1099;104070;-79
2022/08/01 03:12:30;;;;;;;14.73;8.90;;;;;;;19.81;85.15;99815.23;125125;1099;104204;-79
2022/08/01 03:15:05;;;;;;;14.07;8.20;;;;;;;19.85;85.12;99807.19;125153;1099;103569;-80
2022/08/01 03:17:41;;;;;;;13.13;8.77;;;;;;;19.88;85.16;99801.83;125541;1102;104329;-80
2022/08/01 03:20:17;;;;;;;12.20;8.13;;;;;;;19.88;85.21;99799.16;125101;1102;104188;-79
2022/08/01 03:22:49;;;;;;;13.53;8.47;;;;;;;19.91;84.73;99804.45;125170;1099;102085;-80
2022/08/01 03:25:20;;;;;;;13.43;8.13;;;;;;;19.91;84.85;99804.45;125141;1102;104165;-79
2022/08/01 03:27:55;;;;;;;13.37;8.37;;;;;;;19.91;85.30;99798.22;125129;1099;102225;-80
2022/08/01 03:30:26;;;;;;;14.97;8.60;;;;;;;19.91;85.42;99801.78;125091;1099;104427;-79
2022/08/01 03:32:56;;;;;;;14.30;8.33;;;;;;;19.92;85.07;99799.98;125140;1102;104546;-79
2022/08/01 03:35:30;;;;;;;14.75;8.70;;;;;;;19.96;84.88;99806.14;125039;1099;104230;-79
2022/08/01 03:38:03;;;;;;;15.60;8.40;;;;;;;20.01;85.54;99813.17;125096;1099;102117;-80
2022/08/01 03:40:39;;;;;;;15.98;9.13;;;;;;;20.07;84.71;99815.76;125074;1102;102118;-78
2022/08/01 03:43:17;;;;;;;12.63;8.13;;;;;;;20.14;85.28;99813.01;125094;1099;104361;-79
2022/08/01 03:45:52;;;;;;;14.73;8.20;;;;;;;20.20;84.60;99815.58;125154;1101;104590;-79
2022/08/01 03:48:32;;;;;;;14.87;8.90;;;;;;;20.28;85.12;99819.00;125125;1099;104329;-79
2022/08/01 03:51:01;;;;;;;16.77;8.53;;;;;;;20.33;85.47;99819.80;125117;1099;104258;-79
2022/08/01 03:53:32;;;;;;;14.53;8.47;;;;;;;20.38;84.66;99817.97;125085;1099;118939;-79
2022/08/01 03:56:19;;;;;;;15.83;9.10;;;;;;;20.43;84.34;99824.10;125042;1099;104169;-79
2022/08/01 03:58:49;;;;;;;14.30;8.30;;;;;;;20.48;84.79;99816.03;125141;1099;104210;-79
2022/08/01 04:01:18;;;;;;;11.73;8.10;;;;;;;20.51;84.62;99809.78;125142;1099;104509;-79
2022/08/01 04:03:47;;;;;;;15.90;8.37;;;;;;;20.48;84.82;99816.91;124381;1099;104226;-78
2022/08/01 04:06:17;;;;;;;14.07;8.90;;;;;;;20.45;84.52;99811.63;125103;1099;103069;-80
2022/08/01 04:08:55;;;;;;;18.23;9.17;;;;;;;20.46;85.16;99823.19;125026;1102;102922;-79
2022/08/01 04:11:25;;;;;;;14.53;9.17;;;;;;;20.44;84.88;99814.31;125147;1099;104076;-79
2022/08/01 04:13:54;;;;;;;14.93;8.87;;;;;;;20.42;84.58;99818.80;125092;1102;104293;-79
2022/08/01 04:16:22;;;;;;;15.00;8.93;;;;;;;20.40;84.40;99821.48;125067;1102;102223;-79
2022/08/01 04:18:52;;;;;;;14.63;8.63;;;;;;;20.38;84.77;99809.08;125023;1102;104240;-78
2022/08/01 04:21:27;;;;;;;14.17;8.73;;;;;;;20.37;84.99;99823.33;125028;1102;104077;-78
2022/08/01 04:23:59;;;;;;;14.83;9.33;;;;;;;20.33;85.30;99825.13;125043;1099;104172;-79
2022/08/01 04:26:30;;;;;;;14.73;9.43;;;;;;;20.28;84.34;99819.88;125034;1099;104204;-79
2022/08/01 04:29:01;;;;;;;21.77;10.70;;;;;;;20.23;85.56;99820.86;124981;1099;104224;-78
2022/08/01 04:31:31;;;;;;;16.17;9.83;;;;;;;20.17;85.70;99810.30;125105;1099;104349;-80
2022/08/01 04:34:02;;;;;;;14.93;9.30;;;;;;;20.11;85.39;99814.79;125078;1099;104168;-80
2022/08/01 04:36:33;;;;;;;15.30;9.13;;;;;;;20.07;84.73;99815.76;125049;1099;104287;-80
2022/08/01 04:39:04;;;;;;;14.63;8.80;;;;;;;20.03;85.22;99824.68;125124;1100;104233;-81
2022/08/01 04:41:34;;;;;;;16.33;8.87;;;;;;;20.00;84.87;99824.72;125115;1102;104297;-80
2022/08/01 04:44:03;;;;;;;16.50;9.27;;;;;;;19.96;85.50;99815.03;125019;1099;104213;-79
2022/08/01 04:46:42;;;;;;;15.43;9.10;;;;;;;19.93;85.54;99812.41;125143;1098;104245;-81
2022/08/01 04:49:12;;;;;;;14.27;8.70;;;;;;;19.89;86.22;99816.01;125036;1099;102741;-80
2022/08/01 04:51:51;;;;;;;14.93;8.63;;;;;;;19.87;86.13;99808.04;125050;1099;104073;-79
2022/08/01 04:54:21;;;;;;;16.83;8.97;;;;;;;19.87;85.63;99812.50;124338;1099;104242;-79
2022/08/01 04:56:50;;;;;;;15.70;9.33;;;;;;;19.90;86.97;99812.45;124961;1102;104255;-80
2022/08/01 05:02:02;;;;;;;16.02;9.33;;;;;;;19.91;86.32;99814.19;124291;1102;104054;-80
2022/08/01 05:04:30;;;;;;;14.13;8.70;;;;;;;19.92;86.39;99810.64;124999;1099;102976;-79
2022/08/01 05:06:59;;;;;;;15.73;8.67;;;;;;;19.90;87.19;99812.45;124994;1099;104232;-79
2022/08/01 05:09:29;;;;;;;16.07;9.03;;;;;;;19.88;85.93;99812.48;124983;1099;103102;-79
2022/08/01 05:11:58;;;;;;;15.63;9.40;;;;;;;19.91;86.08;99811.53;124975;1099;104178;-80
2022/08/01 05:14:31;;;;;;;14.10;8.60;;;;;;;19.89;85.98;99811.55;125047;1099;104121;-80
2022/08/01 05:17:04;;;;;;;13.68;8.43;;;;;;;19.88;85.99;99814.23;125036;1098;104173;-79
2022/08/01 05:19:37;;;;;;;17.67;9.67;;;;;;;19.89;86.75;99810.68;125068;1098;104246;-80
2022/08/01 05:22:10;;;;;;;15.53;8.93;;;;;;;19.89;87.07;99818.67;125064;1102;104309;-80
2022/08/01 05:24:42;;;;;;;16.00;8.80;;;;;;;19.88;87.19;99814.23;125091;1099;104171;-80
2022/08/01 05:27:11;;;;;;;15.30;8.93;;;;;;;19.90;87.13;99818.65;126206;1100;104143;-80
2022/08/01 05:29:40;;;;;;;14.23;8.70;;;;;;;19.95;86.99;99823.05;125114;1101;104261;-80
2022/08/01 05:32:11;;;;;;;16.83;8.90;;;;;;;19.95;87.43;99820.38;125067;1102;104293;-80
2022/08/01 05:34:43;;;;;;;13.43;8.20;;;;;;;19.95;88.28;99831.03;125006;1102;104223;-80
2022/08/01 05:37:16;;;;;;;12.93;8.40;;;;;;;19.94;86.74;99830.12;125207;1102;104328;-82
2022/08/01 05:39:45;;;;;;;13.83;8.37;;;;;;;19.98;87.78;99830.98;125520;1099;104181;-84
2022/08/01 05:42:14;;;;;;;14.43;8.93;;;;;;;20.01;87.90;99834.48;125482;1102;102317;-83
2022/08/01 05:44:45;;;;;;;15.83;9.63;;;;;;;20.05;87.21;99832.64;125468;1102;102398;-83
2022/08/01 05:47:16;;;;;;;16.27;10.00;;;;;;;20.06;87.31;99834.42;125439;1102;103026;-83
2022/08/01 05:49:46;;;;;;;15.53;9.27;;;;;;;20.10;87.16;99825.47;125169;1099;104135;-81
2022/08/01 05:52:18;;;;;;;15.57;9.10;;;;;;;20.17;88.05;99823.62;125164;1099;104165;-80
2022/08/01 05:54:50;;;;;;;16.80;9.60;;;;;;;20.25;87.48;99824.38;125273;1101;102180;-80
2022/08/01 05:57:31;;;;;;;17.87;10.70;;;;;;;20.35;87.94;99820.69;125025;1099;102975;-80
2022/08/01 06:00:01;;;;;;;20.03;10.43;;;;;;;20.45;87.46;99816.95;124928;1102;104323;-80
2022/08/01 06:02:44;;;;;;;20.93;11.00;;;;;;;20.57;87.39;99814.98;125011;1102;104051;-79
2022/08/01 06:05:15;;;;;;;21.70;10.87;;;;;;;20.64;86.61;99821.98;125051;1099;103023;-79
2022/08/01 06:07:46;;;;;;;20.53;10.17;;;;;;;20.68;87.53;99822.84;125007;1099;102532;-78
2022/08/01 06:10:19;;;;;;;16.93;9.70;;;;;;;20.72;86.75;99828.09;125152;1099;102094;-79
2022/08/01 06:12:56;;;;;;;18.48;9.50;;;;;;;20.76;86.66;99832.48;125108;1102;104166;-80
2022/08/01 06:15:51;;;;;;;15.40;8.87;;;;;;;20.78;86.03;99833.33;125024;1099;104085;-81
2022/08/01 06:18:39;;;;;;;18.13;10.33;;;;;;;20.78;85.95;99825.33;125006;1099;104066;-79
2022/08/01 06:21:16;;;;;;;14.47;8.70;;;;;;;20.83;86.06;99831.48;125035;1099;102781;-80
2022/08/01 06:23:51;;;;;;;17.03;8.97;;;;;;;20.83;86.59;99828.83;124863;1102;105825;-79
2022/08/01 06:26:36;;;;;;;20.37;9.30;;;;;;;20.86;87.22;99832.33;124948;1102;104345;-79
2022/08/01 06:29:15;;;;;;;17.33;9.43;;;;;;;20.94;86.67;99825.07;124997;1102;102986;-80
2022/08/01 06:32:15;;;;;;;;;;;;;;;;;;;;;
2022/08/01 06:35:22;;;;;;;22.97;10.63;;;;;;;21.08;87.29;99835.49;124970;1102;104169;-79
2022/08/01 06:38:13;;;;;;;19.07;9.73;;;;;;;21.14;87.02;99838.92;124754;1102;104899;-80
2022/08/01 06:41:02;;;;;;;15.37;8.53;;;;;;;21.21;86.18;99838.81;124803;1103;103041;-79
2022/08/01 06:44:07;;;;;;;;;;;;;;;;;;;;;
2022/08/01 06:47:05;;;;;;;16.15;8.30;;;;;;;21.39;85.84;99830.45;124785;1102;104241;-80
2022/08/01 06:49:36;;;;;;;14.63;7.30;;;;;;;21.49;86.25;99828.55;125380;1102;102398;-79
2022/08/01 06:52:15;;;;;;;13.07;6.90;;;;;;;21.57;85.85;99820.39;125012;1099;104277;-78
2022/08/01 06:55:03;;;;;;;13.53;7.27;;;;;;;21.69;85.45;99814.77;125532;1102;103018;-78
2022/08/01 06:57:37;;;;;;;15.63;7.07;;;;;;;21.81;85.28;99819.84;126015;1102;108022;-78
2022/08/01 07:01:04;;;;;;;14.47;6.83;;;;;;;21.93;85.09;99817.84;125006;1102;104293;-77
2022/08/01 07:03:35;;;;;;;16.30;7.40;;;;;;;22.02;85.16;99807.83;124336;1102;104248;-76
2022/08/01 07:06:05;;;;;;;12.83;7.03;;;;;;;22.13;84.18;99815.61;124468;1102;104255;-77
2022/08/01 07:08:34;;;;;;;16.13;7.37;;;;;;;22.20;84.60;99817.20;124240;1099;102396;-76
2022/08/01 07:11:37;;;;;;;8.83;5.77;;;;;;;22.30;84.48;99817.92;124275;1099;102377;-81
2022/08/01 07:14:13;;;;;;;12.23;5.53;;;;;;;22.41;83.08;99812.33;126068;1098;102159;-77
2022/08/01 07:16:53;;;;;;;12.60;5.53;;;;;;;22.51;81.95;99816.52;124996;1102;101863;-77
2022/08/01 07:19:45;;;;;;;13.40;6.17;;;;;;;22.68;83.06;99815.23;124878;1102;102364;-78
2022/08/01 07:22:24;;;;;;;13.03;7.00;;;;;;;22.90;82.42;99813.75;124545;1106;104389;-78
2022/08/01 07:25:28;;;;;;;18.13;6.00;;;;;;;23.04;81.28;99818.74;125039;1102;104236;-78
2022/08/01 07:28:18;;;;;;;9.67;5.40;;;;;;;23.15;79.55;99813.14;125407;1105;104339;-79
2022/08/01 07:30:57;;;;;;;10.78;6.12;;;;;;;23.28;80.28;99813.67;124763;1101;104371;-78
2022/08/01 07:33:28;;;;;;;12.73;5.70;;;;;;;23.41;79.39;99815.10;124809;1105;104363;-79
2022/08/01 07:36:00;;;;;;;10.00;5.20;;;;;;;23.55;79.85;99806.68;124748;1105;104236;-76
2022/08/01 07:38:40;;;;;;;12.37;5.47;;;;;;;23.71;78.91;99803.56;124755;1105;104224;-77
2022/08/01 07:41:28;;;;;;;9.90;5.10;;;;;;;23.92;77.97;99802.95;125260;1102;104214;-77
2022/08/01 07:44:12;;;;;;;12.97;5.17;;;;;;;24.06;77.33;99805.21;124540;1105;102515;-78
2022/08/01 07:46:53;;;;;;;12.77;5.47;;;;;;;24.24;76.97;99801.06;124781;1102;102451;-79
2022/08/01 07:49:40;;;;;;;10.30;5.40;;;;;;;24.42;75.72;99799.60;125606;1102;103248;-78
2022/08/01 07:52:20;;;;;;;13.73;5.30;;;;;;;24.58;74.28;99798.19;124990;1102;103274;-80
2022/08/01 07:54:58;;;;;;;9.70;5.03;;;;;;;24.81;73.97;99791.18;125227;1102;102637;-79
2022/08/01 07:57:32;;;;;;;9.43;5.07;;;;;;;24.96;74.30;99796.94;125020;1102;104345;-79
2022/08/01 08:00:06;;;;;;;8.90;5.00;;;;;;;25.09;73.16;99798.27;125011;1102;104373;-77
2022/08/01 08:02:45;;;;;;;6.63;4.63;;;;;;;25.28;72.72;99803.85;124942;1102;104245;-78
2022/08/01 08:05:25;;;;;;;9.07;5.00;;;;;;;25.49;71.07;99804.89;125115;1102;104211;-77
2022/08/01 08:08:06;;;;;;;10.40;4.53;;;;;;;25.62;70.85;99799.96;124342;1099;104241;-77
2022/08/01 08:10:58;;;;;;;8.57;4.77;;;;;;;25.76;68.71;99794.94;124359;1102;104236;-77
2022/08/01 08:13:48;;;;;;;8.97;4.77;;;;;;;25.88;69.22;99811.52;126139;1098;103452;-78
2022/08/01 08:16:38;;;;;;;8.67;4.80;;;;;;;25.97;68.73;99805.78;124430;1100;104239;-77
2022/08/01 08:19:18;;;;;;;9.77;4.97;;;;;;;26.00;68.35;99811.07;124496;1102;108041;-77
2022/08/01 08:21:49;;;;;;;9.07;5.20;;;;;;;26.09;67.63;99810.71;125183;1102;104213;-77
2022/08/01 08:24:23;;;;;;;7.13;4.37;;;;;;;26.19;66.63;99808.52;125018;1102;104207;-76
2022/08/01 08:26:55;;;;;;;5.20;4.23;;;;;;;26.36;64.52;99811.41;124466;1102;102223;-77
2022/08/01 08:29:55;;;;;;;8.70;4.40;;;;;;;26.50;65.90;99804.59;124423;1099;118771;-77
2022/08/01 08:32:31;;;;;;;10.43;4.80;;;;;;;26.64;65.46;99818.34;124967;1099;104197;-77
2022/08/01 08:35:02;;;;;;;5.47;4.40;;;;;;;26.67;65.07;99809.31;124381;1102;104286;-77
2022/08/01 08:37:42;;;;;;;8.27;4.37;;;;;;;26.77;64.26;99809.79;124376;1099;102713;-76
2022/08/01 08:40:20;;;;;;;6.60;4.70;;;;;;;26.87;62.54;99814.72;125196;1102;101995;-77
2022/08/01 08:42:55;;;;;;;5.87;4.20;;;;;;;26.87;63.22;99814.72;124395;1102;104223;-78
2022/08/01 08:45:37;;;;;;;9.50;4.87;;;;;;;26.97;62.36;99815.19;125417;1102;102711;-78
2022/08/01 08:48:34;;;;;;;7.90;4.80;;;;;;;27.08;61.49;99812.03;125158;1099;104166;-78
2022/08/01 08:51:43;;;;;;;8.53;4.47;;;;;;;27.08;61.17;99812.03;125021;1099;104114;-80
2022/08/01 08:54:35;;;;;;;7.20;4.70;;;;;;;27.10;61.38;99812.87;125108;1102;104245;-79
2022/08/01 08:57:15;;;;;;;9.13;4.70;;;;;;;27.14;60.84;99800.13;124193;1101;103061;-78
2022/08/01 08:59:51;;;;;;;7.40;4.90;;;;;;;27.12;60.42;99802.89;124699;1102;104415;-78
2022/08/01 09:02:26;;;;;;;10.37;4.90;;;;;;;27.06;60.88;99808.55;124778;1102;102583;-78
2022/08/01 09:05:17;;;;;;;;;;;;;;;;;;;;;
2022/08/01 09:07:57;;;;;;;7.73;4.50;;;;;;;27.09;58.55;99811.11;125450;1105;102555;-78
2022/08/01 09:11:05;;;;;;;7.37;4.83;;;;;;;27.19;59.59;99803.48;124173;1101;118863;-80
2022/08/01 09:13:35;;;;;;;7.03;4.93;;;;;;;27.21;59.51;99797.10;124801;1102;104459;-78
2022/08/01 09:16:16;;;;;;;6.47;4.50;;;;;;;27.28;58.83;99792.31;124094;1102;102496;-78
2022/08/01 09:18:50;;;;;;;6.43;4.70;;;;;;;27.33;58.45;99793.03;124292;1102;104306;-79
2022/08/01 09:21:26;;;;;;;10.83;4.97;;;;;;;27.30;58.45;99794.94;124786;1102;104475;-78
2022/08/01 09:24:02;;;;;;;8.80;4.30;;;;;;;27.26;58.24;99796.90;125409;1103;103046;-78
2022/08/01 09:29:49;;;;;;;6.80;4.90;;;;;;;27.10;56.89;99802.09;124604;1102;104358;-79
2022/08/01 09:32:54;;;;;;;11.73;4.70;;;;;;;27.06;56.23;99795.95;124917;1099;104277;-78
2022/08/01 09:35:44;;;;;;;5.57;4.13;;;;;;;27.03;56.02;99796.08;124969;1099;101870;-78
2022/08/01 09:38:19;;;;;;;6.53;4.40;;;;;;;27.15;56.84;99797.38;124358;1099;103215;-77
2022/08/01 09:40:53;;;;;;;7.03;4.53;;;;;;;27.22;56.74;99798.86;125677;1100;101966;-78
2022/08/01 09:43:50;;;;;;;6.00;4.47;;;;;;;27.26;55.50;99799.59;125669;1101;102419;-78
2022/08/01 09:46:27;;;;;;;8.50;4.40;;;;;;;27.36;56.02;99800.08;124959;1102;104166;-78
2022/08/01 09:49:01;;;;;;;5.00;4.10;;;;;;;27.42;55.06;99800.67;125011;1101;104226;-78
2022/08/01 09:51:39;;;;;;;10.20;4.43;;;;;;;27.55;55.21;99797.42;124927;1099;118867;-78
2022/08/01 09:54:09;;;;;;;7.57;4.30;;;;;;;27.58;54.45;99799.97;124929;1102;104453;-77
2022/08/01 09:57:07;;;;;;;5.92;4.20;;;;;;;27.62;54.42;99801.59;125013;1099;102573;-78
2022/08/01 09:59:46;;;;;;;;;;;;;;;27.65;53.54;99805.98;125378;1102;105625;-78
2022/08/01 10:02:31;;;;;;;6.20;4.20;;;;;;;27.65;53.89;99805.98;125005;1101;104182;-78
2022/08/01 10:05:04;;;;;;;4.50;3.73;;;;;;;27.72;53.32;99807.42;124936;1102;104226;-78
2022/08/01 10:07:34;;;;;;;6.03;4.00;;;;;;;27.75;53.09;99812.67;124974;1102;104737;-78
2022/08/01 10:10:18;;;;;;;6.03;3.53;;;;;;;27.80;53.15;99807.97;124935;1102;104205;-78
2022/08/01 10:12:59;;;;;;;5.53;3.70;;;;;;;27.80;52.71;99806.12;124332;1099;104217;-78
2022/08/01 10:15:32;;;;;;;7.33;4.10;;;;;;;27.89;52.62;99807.53;124994;1102;102206;-78
2022/08/01 10:18:07;;;;;;;6.93;3.80;;;;;;;28.06;52.58;99800.48;124977;1102;104236;-78
2022/08/01 10:20:40;;;;;;;5.77;3.60;;;;;;;28.24;52.44;99806.82;124897;1102;104163;-78
2022/08/01 10:23:14;;;;;;;7.30;3.50;;;;;;;28.34;52.31;99794.61;124966;1101;104259;-77
2022/08/01 10:25:59;;;;;;;9.60;3.73;;;;;;;28.40;51.33;99788.05;125020;1102;104197;-78
2022/08/01 10:28:37;;;;;;;8.13;4.10;;;;;;;28.47;51.07;99789.47;124443;1102;104198;-80
2022/08/01 10:31:20;;;;;;;6.37;3.87;;;;;;;28.41;51.21;99789.81;125772;1099;104181;-80
2022/08/01 10:33:51;;;;;;;12.13;3.53;;;;;;;28.36;51.02;99783.75;125005;1102;104185;-78
2022/08/01 10:36:43;;;;;;;11.60;3.93;;;;;;;28.28;50.59;99782.32;126185;1101;102098;-79
2022/08/01 10:39:32;;;;;;;12.97;4.83;;;;;;;28.18;50.52;99770.22;125060;1102;102328;-80
2022/08/01 10:42:17;;;;;;;5.93;3.20;;;;;;;28.25;49.83;99782.47;125070;1099;102018;-79
2022/08/01 10:44:55;;;;;;;9.60;3.70;;;;;;;28.36;49.36;99789.14;125485;1102;104239;-78
2022/08/01 10:47:41;;;;;;;9.40;4.10;;;;;;;28.42;49.62;99772.65;125028;1099;104567;-78
2022/08/01 10:50:18;;;;;;;6.03;3.77;;;;;;;28.56;49.66;99767.42;124971;1102;104280;-80
2022/08/01 10:53:11;;;;;;;6.70;3.70;;;;;;;28.66;48.41;99765.19;125026;1102;110864;-79
2022/08/01 10:55:58;;;;;;;6.20;3.60;;;;;;;28.60;48.12;99760.97;125556;1102;104166;-80
2022/08/01 10:58:55;;;;;;;5.43;3.73;;;;;;;28.73;47.59;99758.50;125042;1102;104318;-79
2022/08/01 11:01:57;;;;;;;5.97;3.40;;;;;;;28.74;47.01;99764.80;125026;1100;104169;-80
2022/08/01 11:07:55;;;;;;;5.80;3.40;;;;;;;28.78;47.28;99759.16;125044;1102;102329;-80
2022/08/01 11:11:05;;;;;;;5.60;3.37;;;;;;;28.75;46.82;99758.42;125520;1102;104583;-81
2022/08/01 11:14:40;;;;;;;7.47;3.70;;;;;;;28.81;47.68;99750.02;124987;1102;119625;-81
2022/08/01 11:17:33;;;;;;;5.37;3.30;;;;;;;28.80;47.45;99759.95;124788;1105;104172;-80
2022/08/01 11:20:29;;;;;;;14.47;3.80;;;;;;;28.79;46.92;99757.33;124800;1105;104300;-80
2022/08/01 11:23:47;;;;;;;9.20;3.70;;;;;;;28.78;46.95;99751.06;125453;1105;104199;-79
2022/08/01 11:26:57;;;;;;;10.17;3.23;;;;;;;28.79;46.39;99754.63;125262;1106;102229;-79
2022/08/01 11:29:37;;;;;;;7.03;3.70;;;;;;;28.80;46.76;99750.98;124823;1106;104188;-79
2022/08/01 11:36:20;;;;;;;4.43;3.60;;;;;;;28.78;46.92;99753.77;124862;1105;104974;-79
2022/08/01 11:39:28;;;;;;;6.03;3.50;;;;;;;28.71;45.71;99759.56;125471;1105;101849;-78
2022/08/01 11:42:34;;;;;;;6.63;3.80;;;;;;;28.64;45.82;99762.57;124708;1105;104172;-77
2022/08/01 11:48:27;;;;;;;8.93;3.73;;;;;;;28.61;46.14;99751.03;124566;1105;104182;-79
2022/08/01 11:51:03;;;;;;;10.97;4.60;;;;;;;28.64;46.32;99749.08;124794;1106;102290;-79
2022/08/01 11:53:38;;;;;;;4.97;3.90;;;;;;;28.68;46.17;99747.08;124799;1103;104653;-77
2022/08/01 11:56:18;;;;;;;14.10;3.97;;;;;;;28.78;46.18;99748.37;124828;1103;104233;-78
2022/08/01 11:59:25;;;;;;;8.03;3.97;;;;;;;28.90;45.63;99748.67;124806;1105;104303;-77
2022/08/01 12:02:04;;;;;;;5.47;4.00;;;;;;;28.86;45.96;99739.87;124741;1102;102181;-78
2022/08/01 12:07:53;;;;;;;8.43;3.90;;;;;;;28.82;45.02;99732.88;124807;1102;104488;-79
2022/08/01 12:10:37;;;;;;;5.10;3.57;;;;;;;28.86;44.22;99737.17;124832;1105;104207;-78
2022/08/01 12:13:12;;;;;;;6.93;3.70;;;;;;;28.88;44.65;99739.78;124550;1102;102541;-77
2022/08/01 12:15:50;;;;;;;10.90;4.20;;;;;;;28.96;44.19;99738.41;124810;1102;104297;-77
2022/08/01 12:18:38;;;;;;;7.77;3.90;;;;;;;29.10;44.19;99734.12;124183;1102;104220;-77
2022/08/01 12:21:13;;;;;;;5.97;3.83;;;;;;;29.22;43.96;99745.16;124775;1102;102472;-78
2022/08/01 12:24:02;;;;;;;6.70;3.80;;;;;;;29.21;43.25;99737.14;124854;1099;104169;-79
2022/08/01 12:26:50;;;;;;;10.30;4.27;;;;;;;29.18;42.86;99742.67;125554;1099;102029;-79